Time;durP1;ratioP1;P1;durP2;ratioP2;P2;SDS_P1;SDS_P2;PMS_P1;PMS_P2;Temp;Humidity;BMP_temperature;BMP_pressure;BME280_temperature;BME280_humidity;BME280_pressure;Samples;Min_cycle;Max_cycle;Signal;HPM_P1;HPM_P2
2022/04/22 00:01:17;;;;;;;23.40;17.80;;;;;;;0.74;72.54;97021.79;110369;1245;70795;-67
2022/04/22 00:03:48;;;;;;;;;;;;;;;0.71;71.71;97022.25;110431;1246;69712;-70
2022/04/22 00:06:17;;;;;;;19.60;14.20;;;;;;;0.66;71.03;97020.56;110095;1244;69271;-69
2022/04/22 00:08:47;;;;;;;22.00;15.20;;;;;;;0.64;73.49;97018.91;110303;1247;59767;-68
2022/04/22 00:11:32;;;;;;;18.80;14.00;;;;;;;0.60;72.25;97017.52;110069;1247;59690;-69
2022/04/22 00:14:08;;;;;;;22.50;15.30;;;;;;;0.58;73.09;97015.71;110398;1244;71434;-68
2022/04/22 00:16:38;;;;;;;21.10;14.90;;;;;;;0.57;73.61;97013.20;110162;1247;69474;-71
2022/04/22 00:19:08;;;;;;;22.70;15.80;;;;;;;0.56;74.81;97012.56;110316;1245;68834;-71
2022/04/22 00:21:41;;;;;;;;;;;;;;;0.57;74.50;97012.17;110221;1245;59664;-71
2022/04/22 00:24:12;;;;;;;19.90;13.70;;;;;;;0.58;71.34;97005.25;110107;1244;59753;-68
2022/04/22 00:26:41;;;;;;;19.00;12.80;;;;;;;0.62;68.29;96998.93;110034;1246;70738;-69
2022/04/22 00:29:11;;;;;;;16.70;11.80;;;;;;;0.66;69.10;96998.07;110121;1246;68493;-70
2022/04/22 00:31:41;;;;;;;14.20;10.20;;;;;;;0.67;68.50;96998.37;110114;1247;67895;-72
2022/04/22 00:34:11;;;;;;;17.70;12.10;;;;;;;0.67;67.24;96993.41;110088;1246;59757;-68
2022/04/22 00:36:42;;;;;;;16.20;11.80;;;;;;;0.66;67.79;96995.85;110102;1247;59742;-70
2022/04/22 00:39:13;;;;;;;24.10;17.60;;;;;;;0.63;68.85;96995.80;110473;1245;71777;-70
2022/04/22 00:41:43;;;;;;;;;;;;;;;0.58;70.24;96995.83;110268;1244;68644;-69
2022/04/22 00:44:13;;;;;;;23.30;15.50;;;;;;;0.57;70.53;97001.20;110077;1245;68858;-72
2022/04/22 00:46:43;;;;;;;;;;;;;;;0.55;70.88;96999.04;110052;1247;59745;-70
2022/04/22 00:49:13;;;;;;;17.00;11.60;;;;;;;0.55;68.91;96995.79;110051;1247;59643;-70
2022/04/22 00:51:44;;;;;;;15.90;10.70;;;;;;;0.56;68.32;97000.22;110096;1247;71219;-71
2022/04/22 00:54:14;;;;;;;19.50;13.20;;;;;;;0.57;68.73;96998.61;109939;1248;69350;-69
2022/04/22 00:56:44;;;;;;;18.70;13.70;;;;;;;0.59;71.52;97000.08;110076;1247;69417;-70
2022/04/22 00:59:15;;;;;;;17.90;13.40;;;;;;;0.56;73.85;97001.07;110128;1247;59771;-71
2022/04/22 01:01:45;;;;;;;19.50;14.90;;;;;;;0.51;72.69;96998.85;110121;1247;59666;-68
2022/04/22 01:09:56;;;;;;;22.10;15.90;;;;;;;0.34;75.26;96991.45;110066;1245;68627;-67
2022/04/22 01:12:31;;;;;;;20.20;14.50;;;;;;;0.30;75.34;96995.71;110147;1246;59739;-70
2022/04/22 01:15:02;;;;;;;21.60;13.70;;;;;;;0.28;74.77;96997.38;110183;1246;59746;-72
2022/04/22 01:17:32;;;;;;;16.90;12.00;;;;;;;0.26;74.28;96995.54;110172;1247;70356;-72
2022/04/22 01:20:04;;;;;;;16.10;12.00;;;;;;;0.25;74.63;96991.82;110190;1247;69199;-72
2022/04/22 01:22:34;;;;;;;18.80;13.00;;;;;;;0.24;75.39;96988.41;110033;1247;68752;-71
2022/04/22 01:25:04;;;;;;;20.80;15.20;;;;;;;0.23;73.96;96986.20;110077;1247;60143;-67
2022/04/22 01:27:37;;;;;;;15.10;12.90;;;;;;;0.24;73.13;96982.08;110097;1246;59656;-68
2022/04/22 01:30:08;;;;;;;17.70;12.70;;;;;;;0.26;73.66;96982.49;110154;1246;71534;-69
2022/04/22 01:32:38;;;;;;;17.30;13.30;;;;;;;0.24;73.51;96982.73;110098;1247;69194;-71
2022/04/22 01:35:08;;;;;;;17.20;12.90;;;;;;;0.21;73.11;96978.77;110081;1247;69316;-71
2022/04/22 01:37:39;;;;;;;16.10;12.40;;;;;;;0.16;74.39;96976.88;110081;1246;59613;-70
2022/04/22 01:40:11;;;;;;;17.90;12.70;;;;;;;0.12;75.16;96967.80;110153;1246;59714;-71
2022/04/22 01:42:43;;;;;;;17.40;12.60;;;;;;;0.09;73.25;96965.01;110126;1246;71318;-71
2022/04/22 01:45:14;;;;;;;18.10;14.00;;;;;;;0.06;74.70;96967.51;110138;1247;68715;-69
2022/04/22 01:47:44;;;;;;;12.40;8.90;;;;;;;0.05;76.10;96963.44;110047;1246;68631;-69
2022/04/22 01:50:15;;;;;;;16.90;11.00;;;;;;;0.05;71.03;96962.07;110121;1247;59704;-71
2022/04/22 01:52:45;;;;;;;16.70;12.80;;;;;;;0.11;70.77;96958.58;110103;1246;59689;-70
2022/04/22 01:55:16;;;;;;;17.30;12.20;;;;;;;0.18;71.37;96957.95;110023;1247;70872;-70
2022/04/22 01:57:46;;;;;;;19.20;14.20;;;;;;;0.23;72.02;96960.86;110035;1247;69376;-70
2022/04/22 02:00:18;;;;;;;18.00;13.10;;;;;;;0.26;71.86;96962.98;110062;1247;67660;-69
2022/04/22 02:02:47;;;;;;;14.20;10.40;;;;;;;0.29;70.25;96959.94;110098;1247;59779;-70
2022/04/22 02:05:17;;;;;;;22.80;16.70;;;;;;;0.33;71.56;96956.17;110089;1247;59599;-70
2022/04/22 02:07:48;;;;;;;19.60;14.30;;;;;;;0.32;72.51;96959.45;109991;1247;71541;-71
2022/04/22 02:10:19;;;;;;;23.30;16.20;;;;;;;0.29;71.96;96956.16;110078;1247;69265;-69
2022/04/22 02:12:49;;;;;;;19.10;14.30;;;;;;;0.30;74.88;96953.91;110109;1247;69406;-71
2022/04/22 02:15:20;;;;;;;23.00;15.80;;;;;;;0.33;76.20;96947.79;110062;1247;59766;-66
2022/04/22 02:17:51;;;;;;;20.30;14.90;;;;;;;0.37;76.64;96950.18;110077;1246;59709;-69
2022/04/22 02:20:22;;;;;;;18.50;12.90;;;;;;;0.42;76.36;96947.77;110116;1246;71425;-68
2022/04/22 02:22:52;;;;;;;16.60;12.10;;;;;;;0.43;74.50;96948.39;109894;1247;69473;-65
2022/04/22 02:25:23;;;;;;;18.20;13.00;;;;;;;0.43;73.76;96949.61;110122;1245;69406;-69
2022/04/22 02:30:43;;;;;;;19.90;14.10;;;;;;;0.42;76.39;96941.96;110138;1247;60143;-68
2022/04/22 02:33:14;;;;;;;20.30;13.30;;;;;;;0.43;76.40;96941.38;110130;1247;70716;-71
2022/04/22 02:35:44;;;;;;;17.30;13.50;;;;;;;0.45;75.31;96941.30;110077;1247;68665;-69
2022/04/22 02:38:14;;;;;;;16.10;11.00;;;;;;;0.46;76.06;96943.66;110108;1246;68401;-70
2022/04/22 02:46:24;;;;;;;20.00;13.60;;;;;;;0.55;71.10;96931.49;110126;1247;70651;-71
2022/04/22 02:48:58;;;;;;;16.10;11.60;;;;;;;0.57;70.91;96926.42;110056;1246;68415;-70
2022/04/22 02:51:28;;;;;;;21.30;14.10;;;;;;;0.59;70.89;96921.52;110132;1247;69215;-71
2022/04/22 02:53:58;;;;;;;16.30;12.60;;;;;;;0.62;70.40;96918.35;110139;1244;59770;-65
2022/04/22 02:56:31;;;;;;;22.10;14.00;;;;;;;0.63;71.08;96916.55;110397;1244;59697;-71
2022/04/22 02:59:02;;;;;;;20.70;14.20;;;;;;;0.63;72.58;96918.46;110431;1244;69770;-67
2022/04/22 03:01:34;;;;;;;18.00;12.60;;;;;;;0.62;72.60;96924.17;110139;1247;68526;-68
2022/04/22 03:04:05;;;;;;;16.00;11.10;;;;;;;0.61;70.93;96930.40;110489;1244;69380;-70
2022/04/22 03:06:34;;;;;;;15.30;11.10;;;;;;;0.59;71.21;96933.01;110085;1246;59693;-70
2022/04/22 03:09:05;;;;;;;18.60;12.70;;;;;;;0.59;70.84;96931.15;110383;1244;59666;-70
2022/04/22 03:11:35;;;;;;;21.80;15.40;;;;;;;0.58;74.72;96924.51;110457;1244;71902;-70
2022/04/22 03:14:05;;;;;;;;;;;;;;;0.57;74.90;96926.42;110409;1244;69198;-71
2022/04/22 03:16:35;;;;;;;20.20;13.10;;;;;;;0.58;75.26;96925.18;110334;1244;68637;-69
2022/04/22 03:19:05;;;;;;;;;;;;;;;0.61;76.01;96923.69;110436;1244;59723;-72
2022/04/22 03:21:36;;;;;;;16.10;11.30;;;;;;;0.63;76.30;96924.10;110329;1244;59693;-69
2022/04/22 03:24:07;;;;;;;16.10;11.40;;;;;;;0.66;72.79;96919.55;110378;1244;70877;-70
2022/04/22 03:26:37;;;;;;;18.30;12.10;;;;;;;0.69;71.15;96921.45;110111;1245;69284;-70
2022/04/22 03:29:07;;;;;;;;;;;;;;;0.74;70.43;96926.94;110114;1245;69332;-69
2022/04/22 03:31:37;;;;;;;20.30;13.60;;;;;;;0.80;71.92;96934.57;110089;1247;59705;-70
2022/04/22 03:34:07;;;;;;;16.50;12.90;;;;;;;0.85;72.63;96936.09;110357;1247;59746;-69
2022/04/22 03:36:37;;;;;;;20.50;13.40;;;;;;;0.92;75.11;96939.20;110456;1244;71595;-70
2022/04/22 03:39:07;;;;;;;23.60;17.00;;;;;;;0.98;74.56;96946.67;110073;1247;68797;-67
2022/04/22 03:41:39;;;;;;;21.30;15.00;;;;;;;0.99;72.97;96945.09;110390;1244;68610;-66
2022/04/22 03:44:08;;;;;;;19.10;13.60;;;;;;;0.94;73.96;96937.23;110133;1244;59740;-69
2022/04/22 03:46:39;;;;;;;17.40;14.20;;;;;;;0.94;74.64;96934.98;110333;1244;59729;-71
2022/04/22 03:49:09;;;;;;;20.20;13.30;;;;;;;0.94;75.80;96931.41;110434;1244;71372;-70
2022/04/22 03:51:39;;;;;;;19.80;14.20;;;;;;;0.95;76.33;96930.47;110112;1247;69380;-69
2022/04/22 03:54:09;;;;;;;24.40;16.70;;;;;;;0.96;76.32;96926.67;110035;1247;69424;-69
2022/04/22 03:59:28;;;;;;;24.00;15.50;;;;;;;0.92;74.00;96943.31;110125;1247;59756;-68
2022/04/22 04:01:58;;;;;;;19.50;12.60;;;;;;;0.90;73.67;96945.64;110107;1247;70743;-68
2022/04/22 04:04:28;;;;;;;26.80;18.90;;;;;;;0.92;76.32;96952.96;109869;1248;69467;-67
2022/04/22 04:06:57;;;;;;;24.30;16.70;;;;;;;0.91;75.62;96953.15;110066;1247;68677;-69
2022/04/22 04:17:51;;;;;;;30.40;20.70;;;;;;;0.95;74.87;96945.94;110078;1246;69382;-68
2022/04/22 04:23:15;;;;;;;29.10;20.20;;;;;;;0.74;74.52;96950.27;110109;1246;60076;-68
2022/04/22 04:25:50;;;;;;;23.80;17.60;;;;;;;0.67;75.41;96945.57;110175;1247;59662;-71
2022/04/22 04:28:19;;;;;;;28.80;20.70;;;;;;;0.70;76.39;96948.02;110060;1247;70746;-68
2022/04/22 04:30:49;;;;;;;25.20;17.00;;;;;;;0.75;76.18;96950.36;110135;1247;69368;-66
2022/04/22 04:33:19;;;;;;;29.00;20.10;;;;;;;0.84;76.93;96953.42;110038;1247;68935;-67
2022/04/22 04:35:50;;;;;;;27.10;18.20;;;;;;;1.06;79.07;96952.69;110117;1247;59720;-69
2022/04/22 04:38:20;;;;;;;28.60;19.10;;;;;;;1.20;77.68;96952.11;110090;1247;59617;-68
2022/04/22 04:40:49;;;;;;;29.00;19.60;;;;;;;1.29;75.87;96945.88;110099;1246;71477;-67
2022/04/22 04:43:20;;;;;;;30.10;20.60;;;;;;;1.37;74.83;96939.54;110114;1247;68575;-69
2022/04/22 04:45:50;;;;;;;;;;;;;;;1.46;76.16;96939.30;110076;1247;69463;-69
2022/04/22 04:48:19;;;;;;;25.60;17.10;;;;;;;1.58;75.84;96941.89;110138;1247;59744;-68
2022/04/22 04:50:51;;;;;;;18.40;12.30;;;;;;;1.72;74.73;96939.15;110114;1247;59733;-67
2022/04/22 04:53:23;;;;;;;21.90;15.00;;;;;;;1.85;72.47;96927.41;109893;1248;71675;-69
2022/04/22 04:55:53;;;;;;;25.90;17.70;;;;;;;1.99;72.13;96920.06;109952;1247;68745;-69
2022/04/22 04:58:22;;;;;;;29.50;20.80;;;;;;;2.18;72.33;96922.12;110054;1247;68852;-69
2022/04/22 05:00:52;;;;;;;30.40;21.50;;;;;;;2.42;72.00;96929.02;110082;1247;59726;-70
2022/04/22 05:03:22;;;;;;;29.80;20.10;;;;;;;2.62;71.71;96919.98;110103;1247;60114;-68
2022/04/22 05:05:51;;;;;;;25.60;19.80;;;;;;;2.80;71.72;96920.66;109922;1247;71362;-68
2022/04/22 05:08:21;;;;;;;28.80;23.80;;;;;;;2.99;72.06;96916.09;110058;1247;69795;-69
2022/04/22 05:10:50;;;;;;;37.70;26.20;;;;;;;3.15;72.08;96915.11;109967;1248;69474;-69
2022/04/22 05:13:20;;;;;;;30.30;22.20;;;;;;;3.29;71.71;96909.07;110075;1247;59696;-67
2022/04/22 05:15:51;;;;;;;24.70;18.80;;;;;;;3.41;71.91;96891.02;110092;1247;59643;-67
2022/04/22 05:18:20;;;;;;;35.00;25.00;;;;;;;3.52;72.52;96886.82;109937;1247;70774;-68
2022/04/22 05:20:49;;;;;;;30.20;21.70;;;;;;;3.60;73.59;96881.27;110114;1247;68949;-70
2022/04/22 05:23:19;;;;;;;28.50;20.80;;;;;;;3.72;73.92;96880.27;109820;1250;69476;-67
2022/04/22 05:25:48;;;;;;;26.40;20.60;;;;;;;3.84;72.69;96888.04;110059;1247;59671;-69
2022/04/22 05:28:18;;;;;;;34.00;23.10;;;;;;;3.99;71.24;96891.20;109889;1247;59689;-65
2022/04/22 05:33:35;;;;;;;34.20;24.60;;;;;;;4.13;70.39;96890.43;110060;1247;68793;-68
2022/04/22 05:36:06;;;;;;;29.00;23.10;;;;;;;4.13;70.54;96887.99;110070;1247;69788;-68
2022/04/22 05:38:35;;;;;;;28.60;20.20;;;;;;;4.18;70.63;96888.13;110065;1246;59783;-67
2022/04/22 05:41:04;;;;;;;25.20;19.30;;;;;;;4.22;70.80;96890.95;110127;1247;59640;-67
2022/04/22 05:43:34;;;;;;;37.10;25.30;;;;;;;4.22;71.68;96895.09;110068;1247;70755;-67
2022/04/22 05:46:03;;;;;;;33.40;26.60;;;;;;;4.25;72.42;96891.88;110050;1248;69501;-68
2022/04/22 05:48:32;;;;;;;32.50;23.80;;;;;;;4.28;72.44;96884.25;110056;1247;68690;-69
2022/04/22 05:51:01;;;;;;;26.40;19.10;;;;;;;4.35;72.56;96880.77;110092;1247;59757;-74
2022/04/22 05:53:31;;;;;;;38.90;29.00;;;;;;;4.47;70.63;96883.04;110103;1247;59775;-71
2022/04/22 05:56:01;;;;;;;42.60;30.00;;;;;;;4.57;70.20;96881.77;110073;1247;72145;-72
2022/04/22 05:58:30;;;;;;;51.00;36.40;;;;;;;4.56;69.95;96882.27;110143;1245;68360;-72
2022/04/22 06:01:00;;;;;;;49.90;33.10;;;;;;;4.51;69.46;96877.40;110029;1244;69667;-72
2022/04/22 06:03:30;;;;;;;42.30;31.00;;;;;;;4.52;71.13;96875.45;110395;1244;59667;-72
2022/04/22 06:05:59;;;;;;;;;;;;;;;4.61;70.76;96876.48;110458;1244;59681;-71
2022/04/22 06:11:16;;;;;;;33.80;25.20;;;;;;;4.87;71.99;96868.45;110150;1246;68709;-71
2022/04/22 06:13:47;;;;;;;33.70;24.40;;;;;;;5.03;71.58;96860.59;110439;1244;68685;-70
2022/04/22 06:16:20;;;;;;;48.20;31.90;;;;;;;5.22;71.01;96868.31;110152;1244;59737;-71
2022/04/22 06:18:49;;;;;;;40.50;27.50;;;;;;;5.34;70.17;96870.84;110391;1244;59656;-73
2022/04/22 06:21:18;;;;;;;35.00;25.20;;;;;;;5.44;69.56;96856.25;110423;1244;71707;-71
2022/04/22 06:23:48;;;;;;;32.40;24.10;;;;;;;5.56;70.13;96853.90;110169;1244;69702;-71
2022/04/22 06:26:17;;;;;;;34.20;22.00;;;;;;;5.73;70.15;96857.23;110115;1246;68649;-71
2022/04/22 06:28:46;;;;;;;32.80;24.30;;;;;;;5.88;69.81;96855.95;109988;1247;59652;-71
2022/04/22 06:31:16;;;;;;;30.90;22.10;;;;;;;6.02;69.87;96856.79;110050;1247;60083;-71
2022/04/22 06:33:46;;;;;;;28.80;21.80;;;;;;;6.17;69.74;96852.55;110077;1246;71645;-70
2022/04/22 06:36:17;;;;;;;32.40;23.90;;;;;;;6.34;68.52;96852.70;110072;1245;68628;-70
2022/04/22 06:38:46;;;;;;;34.10;25.40;;;;;;;6.50;68.44;96847.64;110402;1242;69290;-65
2022/04/22 06:46:54;;;;;;;32.90;25.00;;;;;;;6.89;67.81;96848.02;110324;1244;70780;-68
2022/04/22 06:49:23;;;;;;;36.30;26.10;;;;;;;7.03;67.78;96848.98;110169;1246;69576;-71
2022/04/22 06:51:53;;;;;;;37.10;28.70;;;;;;;7.10;68.31;96851.45;110171;1244;68592;-72
2022/04/22 06:54:23;;;;;;;29.90;21.00;;;;;;;7.13;67.72;96850.23;110385;1244;59766;-68
2022/04/22 06:56:52;;;;;;;28.00;21.30;;;;;;;7.22;66.56;96853.24;110397;1243;59669;-69
2022/04/22 06:59:23;;;;;;;45.80;31.00;;;;;;;7.27;66.34;96853.30;110033;1247;70894;-70
2022/04/22 07:01:52;;;;;;;;;;;;;;;7.21;65.44;96857.17;110287;1244;69891;-72
2022/04/22 07:04:22;;;;;;;33.90;24.30;;;;;;;7.13;65.10;96850.73;110383;1244;69468;-71
2022/04/22 07:06:52;;;;;;;31.10;23.10;;;;;;;7.14;65.32;96853.48;110407;1244;59719;-72
2022/04/22 07:09:21;;;;;;;28.20;20.10;;;;;;;7.22;65.47;96862.27;110446;1244;59610;-72
2022/04/22 07:11:52;;;;;;;28.40;21.90;;;;;;;7.23;64.25;96870.70;110107;1247;71574;-72
2022/04/22 07:14:21;;;;;;;32.90;23.50;;;;;;;7.15;63.55;96873.50;110075;1247;68599;-72
2022/04/22 07:16:51;;;;;;;33.90;23.50;;;;;;;7.00;63.40;96881.05;110216;1244;69446;-70
2022/04/22 07:19:21;;;;;;;34.00;24.40;;;;;;;6.96;63.33;96884.61;110001;1247;59670;-68
2022/04/22 07:21:50;;;;;;;31.00;24.10;;;;;;;6.97;62.19;96887.38;110138;1247;59647;-72
2022/04/22 07:24:20;;;;;;;34.40;24.80;;;;;;;6.88;60.58;96880.30;110115;1245;72293;-71
2022/04/22 07:26:51;;;;;;;31.90;24.60;;;;;;;6.79;60.74;96885.73;110188;1247;69793;-72
2022/04/22 07:29:24;;;;;;;34.10;24.30;;;;;;;6.78;61.22;96884.45;110130;1245;68951;-71
2022/04/22 07:31:55;;;;;;;33.50;25.70;;;;;;;6.80;60.60;96891.25;110239;1244;59687;-69
2022/04/22 07:34:24;;;;;;;31.90;24.00;;;;;;;6.80;60.63;96888.83;110166;1244;59758;-69
2022/04/22 07:36:54;;;;;;;27.70;19.50;;;;;;;6.84;60.91;96884.76;110424;1244;71526;-70
2022/04/22 07:39:23;;;;;;;33.10;24.20;;;;;;;6.95;61.11;96884.92;110438;1244;68609;-68
2022/04/22 07:41:56;;;;;;;33.40;24.80;;;;;;;7.07;60.49;96881.84;110190;1244;69434;-70
2022/04/22 07:47:14;;;;;;;29.90;24.30;;;;;;;7.16;60.29;96889.67;110189;1245;60082;-70
2022/04/22 07:49:44;;;;;;;32.90;22.30;;;;;;;7.19;60.01;96891.25;110165;1244;71534;-66
2022/04/22 07:52:13;;;;;;;31.40;22.60;;;;;;;7.23;60.10;96894.66;110129;1245;69463;-67
2022/04/22 07:54:42;;;;;;;29.10;21.70;;;;;;;7.24;60.32;96890.23;110398;1244;69698;-67
2022/04/22 07:57:12;;;;;;;;;;;;;;;7.26;60.28;96891.12;110105;1247;59685;-66
2022/04/22 07:59:42;;;;;;;31.10;22.80;;;;;;;7.25;60.30;96889.98;110063;1245;59688;-70
2022/04/22 08:02:11;;;;;;;27.90;20.30;;;;;;;7.20;59.83;96891.52;110129;1247;71708;-71
2022/04/22 08:04:40;;;;;;;32.20;22.50;;;;;;;7.20;61.29;96889.45;110124;1246;68625;-67
2022/04/22 08:07:10;;;;;;;25.40;19.70;;;;;;;7.21;62.63;96890.25;110111;1246;68598;-72
2022/04/22 08:09:54;;;;;;;27.10;18.40;;;;;;;7.23;63.35;96893.73;109863;1247;59755;-70
2022/04/22 08:12:23;;;;;;;33.60;24.90;;;;;;;7.27;63.64;96900.38;110175;1246;59678;-69
2022/04/22 08:14:58;;;;;;;28.60;22.90;;;;;;;7.27;62.80;96911.67;110075;1246;71050;-71
2022/04/22 08:17:27;;;;;;;26.40;20.40;;;;;;;7.26;62.56;96910.39;110087;1246;68336;-70
2022/04/22 08:19:56;;;;;;;32.70;23.40;;;;;;;7.28;61.74;96905.55;110139;1247;69435;-71
2022/04/22 08:22:26;;;;;;;28.60;19.60;;;;;;;7.23;61.25;96907.96;110161;1247;59764;-71
2022/04/22 08:24:56;;;;;;;33.60;24.10;;;;;;;7.20;61.15;96907.27;110494;1244;59693;-73
2022/04/22 08:27:26;;;;;;;28.00;19.30;;;;;;;7.16;61.37;96909.13;110411;1244;71562;-72
2022/04/22 08:29:56;;;;;;;30.10;23.40;;;;;;;7.13;61.42;96906.51;110104;1245;69388;-71
2022/04/22 08:32:26;;;;;;;33.30;25.50;;;;;;;7.11;61.84;96907.16;110049;1245;68813;-65
2022/04/22 08:34:55;;;;;;;37.50;26.90;;;;;;;7.08;62.04;96915.20;110061;1247;60177;-72
2022/04/22 08:37:24;;;;;;;37.10;27.00;;;;;;;7.02;61.88;96917.86;110046;1247;59832;-72
2022/04/22 08:39:55;;;;;;;35.10;25.40;;;;;;;6.98;61.75;96913.61;110097;1247;71149;-70
2022/04/22 08:42:28;;;;;;;35.30;27.10;;;;;;;6.98;61.97;96913.80;110101;1247;69418;-70
2022/04/22 08:45:06;;;;;;;33.20;24.20;;;;;;;7.00;61.78;96915.71;110078;1244;68594;-69
2022/04/22 08:50:31;;;;;;;26.80;18.20;;;;;;;7.23;61.97;96909.52;110173;1244;59694;-70
2022/04/22 08:53:06;;;;;;;22.30;16.00;;;;;;;7.40;61.07;96905.77;109973;1244;71570;-70
2022/04/22 08:55:36;;;;;;;22.30;16.60;;;;;;;7.60;59.52;96906.32;110477;1244;69385;-70
2022/04/22 08:58:05;;;;;;;21.50;15.30;;;;;;;7.78;57.62;96903.66;110182;1244;68313;-71
2022/04/22 09:00:36;;;;;;;22.70;16.80;;;;;;;7.97;59.91;96911.20;110044;1245;59712;-71
2022/04/22 09:03:05;;;;;;;;;;;;;;;8.15;63.37;96908.55;110513;1244;59742;-72
2022/04/22 09:05:35;;;;;;;23.40;18.60;;;;;;;8.31;62.58;96899.94;109806;1244;707005;-69
2022/04/22 09:08:08;;;;;;;25.80;20.20;;;;;;;8.47;64.41;96892.71;110063;1247;68868;-71
2022/04/22 09:10:38;;;;;;;26.00;19.20;;;;;;;8.59;60.82;96893.72;110194;1244;69415;-71
2022/04/22 09:13:10;;;;;;;22.30;17.50;;;;;;;8.68;58.97;96898.30;110096;1247;59710;-72
2022/04/22 09:15:39;;;;;;;21.80;18.00;;;;;;;8.82;59.45;96894.18;110168;1245;59735;-71
2022/04/22 09:18:30;;;;;;;39.00;24.30;;;;;;;8.96;60.99;96894.16;110069;1247;71618;-74
2022/04/22 09:21:02;;;;;;;29.50;21.10;;;;;;;9.08;63.23;96890.27;110140;1247;68921;-69
2022/04/22 09:23:34;;;;;;;26.40;20.30;;;;;;;9.23;62.83;96883.64;110336;1244;69397;-72
2022/04/22 09:26:05;;;;;;;27.80;19.70;;;;;;;9.38;62.47;96882.30;110412;1244;59694;-73
2022/04/22 09:28:39;;;;;;;101.40;55.40;;;;;;;9.53;60.57;96873.52;110310;1244;59638;-73
2022/04/22 09:31:08;;;;;;;115.80;64.60;;;;;;;9.69;63.20;96872.48;110200;1244;71579;-71
2022/04/22 09:33:45;;;;;;;69.20;40.80;;;;;;;9.91;63.69;96873.34;110396;1244;69485;-70
2022/04/22 09:45:08;;;;;;;21.50;16.40;;;;;;;11.07;55.41;96862.37;110169;1247;71736;-71
2022/04/22 09:47:38;;;;;;;25.20;21.00;;;;;;;11.33;57.46;96857.23;110396;1243;69556;-69
2022/04/22 09:50:12;;;;;;;24.60;18.00;;;;;;;11.43;54.72;96849.08;110224;1244;69526;-73
2022/04/22 09:52:46;;;;;;;25.80;19.20;;;;;;;11.54;55.38;96845.19;110418;1244;59741;-71
2022/04/22 09:55:16;;;;;;;28.80;23.30;;;;;;;11.71;55.17;96844.87;110372;1244;59596;-69
2022/04/22 09:57:57;;;;;;;29.70;23.80;;;;;;;11.91;55.56;96847.55;110033;1247;70595;-68
2022/04/22 10:00:27;;;;;;;;;;;;;;;12.06;53.46;96847.10;110195;1247;69522;-73
2022/04/22 10:02:58;;;;;;;20.20;16.90;;;;;;;12.20;52.30;96838.36;110556;1244;68441;-72
2022/04/22 10:05:31;;;;;;;15.60;14.00;;;;;;;12.33;52.12;96826.63;110105;1245;59702;-72
2022/04/22 10:08:03;;;;;;;15.10;13.40;;;;;;;12.44;51.21;96821.56;110097;1244;59709;-72
2022/04/22 10:10:39;;;;;;;14.80;11.80;;;;;;;12.68;51.29;96819.23;110391;1244;71696;-71
2022/04/22 10:13:16;;;;;;;12.90;11.50;;;;;;;13.21;50.79;96816.80;110434;1244;68386;-71
2022/04/22 10:15:51;;;;;;;10.70;9.40;;;;;;;13.87;48.50;96809.42;110150;1244;68904;-71
2022/04/22 10:18:20;;;;;;;;;;;;;;;14.32;46.61;96799.77;110308;1244;60013;-73
2022/04/22 10:20:52;;;;;;;12.30;10.40;;;;;;;14.60;44.30;96796.92;110394;1244;59671;-72
2022/04/22 10:23:22;;;;;;;10.50;9.40;;;;;;;14.74;44.64;96784.50;110398;1244;70947;-72
2022/04/22 10:25:51;;;;;;;11.10;10.00;;;;;;;15.11;44.33;96778.15;110404;1244;68623;-71
2022/04/22 10:28:23;;;;;;;10.50;9.30;;;;;;;15.49;43.74;96776.55;110111;1247;68727;-71
2022/04/22 10:30:54;;;;;;;10.60;9.50;;;;;;;15.81;43.37;96784.62;110200;1245;59765;-72
2022/04/22 10:33:37;;;;;;;10.20;9.00;;;;;;;15.80;42.18;96786.46;110445;1245;59744;-71
2022/04/22 10:36:11;;;;;;;9.60;8.70;;;;;;;16.19;41.75;96773.50;110440;1244;71337;-73
2022/04/22 10:38:43;;;;;;;10.10;8.60;;;;;;;16.52;41.43;96765.53;109908;1246;69458;-70
2022/04/22 10:41:20;;;;;;;9.80;8.40;;;;;;;16.68;40.63;96764.74;110175;1247;69861;-73
2022/04/22 10:49:39;;;;;;;11.00;8.50;;;;;;;17.43;39.88;96747.70;110135;1247;71017;-72
2022/04/22 10:52:11;;;;;;;10.40;9.30;;;;;;;18.11;39.23;96741.83;110017;1247;69418;-71
2022/04/22 10:55:06;;;;;;;9.50;8.40;;;;;;;18.56;37.74;96734.70;110417;1245;68762;-72
2022/04/22 10:57:42;;;;;;;8.40;7.40;;;;;;;18.99;36.86;96728.69;110399;1244;59630;-74
2022/04/22 11:00:12;;;;;;;9.00;8.10;;;;;;;19.06;36.56;96719.95;110117;1248;59649;-70
2022/04/22 11:02:46;;;;;;;6.90;6.20;;;;;;;19.26;36.10;96715.77;110233;1247;71360;-70
2022/04/22 11:05:25;;;;;;;7.60;6.80;;;;;;;19.56;35.98;96712.41;110400;1244;69345;-72
2022/04/22 11:07:57;;;;;;;7.40;6.60;;;;;;;19.87;35.14;96714.15;110178;1247;67623;-72
2022/04/22 11:10:46;;;;;;;7.40;6.20;;;;;;;20.14;35.39;96713.77;110421;1244;59661;-71
2022/04/22 11:13:30;;;;;;;6.10;5.50;;;;;;;20.50;33.94;96705.88;110104;1247;60137;-74
2022/04/22 11:16:05;;;;;;;7.10;6.20;;;;;;;20.66;34.11;96694.91;110384;1244;71530;-71
2022/04/22 11:18:45;;;;;;;6.20;5.60;;;;;;;20.80;33.26;96695.20;110308;1244;70097;-72
2022/04/22 11:21:35;;;;;;;5.70;5.10;;;;;;;20.98;33.24;96695.14;110376;1244;69430;-75
2022/04/22 11:24:09;;;;;;;5.90;5.30;;;;;;;21.12;32.48;96689.14;110329;1242;60084;-72
2022/04/22 11:26:39;;;;;;;6.10;5.50;;;;;;;21.46;32.94;96690.54;110434;1244;59744;-74
2022/04/22 11:29:11;;;;;;;6.10;4.90;;;;;;;21.61;31.94;96687.99;110452;1244;71534;-74
2022/04/22 11:31:58;;;;;;;6.40;5.40;;;;;;;21.76;31.69;96694.19;110262;1244;69405;-75
2022/04/22 11:34:50;;;;;;;5.60;4.90;;;;;;;21.80;31.54;96687.48;110357;1244;69434;-74
2022/04/22 11:37:23;;;;;;;7.40;5.30;;;;;;;21.69;31.46;96681.84;110467;1243;59720;-75
2022/04/22 11:39:54;;;;;;;5.70;5.10;;;;;;;21.27;31.77;96677.16;110205;1245;59697;-75
2022/04/22 11:42:25;;;;;;;6.50;5.60;;;;;;;20.76;32.31;96663.31;110146;1245;70828;-72
2022/04/22 11:45:09;;;;;;;5.10;4.60;;;;;;;20.66;33.05;96649.84;109862;1247;68740;-71
2022/04/22 11:47:41;;;;;;;5.30;4.50;;;;;;;20.93;32.72;96642.15;110169;1244;69104;-73
2022/04/22 11:50:22;;;;;;;6.80;5.50;;;;;;;21.01;33.12;96642.60;110123;1248;59874;-72
2022/04/22 11:52:56;;;;;;;5.00;4.50;;;;;;;21.16;32.89;96637.45;110225;1245;59722;-73
2022/04/22 11:55:27;;;;;;;5.00;4.60;;;;;;;21.36;32.65;96627.50;110419;1244;71494;-74
2022/04/22 11:58:00;;;;;;;4.20;3.80;;;;;;;21.28;32.23;96625.95;110185;1246;69352;-73
2022/04/22 12:06:15;;;;;;;5.20;4.70;;;;;;;21.15;32.40;96607.67;110200;1244;59729;-73
2022/04/22 12:09:00;;;;;;;4.50;4.10;;;;;;;21.36;32.72;96602.45;110241;1245;70584;-73
2022/04/22 12:11:39;;;;;;;4.80;3.70;;;;;;;21.66;32.86;96589.91;110340;1245;69209;-74
2022/04/22 12:14:10;;;;;;;4.90;4.10;;;;;;;22.11;31.82;96580.85;110404;1244;69414;-74
2022/04/22 12:16:43;;;;;;;4.70;4.30;;;;;;;22.09;31.21;96586.38;110414;1244;59747;-74
2022/04/22 12:19:16;;;;;;;4.60;3.70;;;;;;;22.10;31.39;96587.84;110157;1244;59755;-75
2022/04/22 12:21:47;;;;;;;4.20;3.80;;;;;;;22.17;31.49;96581.50;110389;1244;71514;-74
2022/04/22 12:24:18;;;;;;;4.30;3.10;;;;;;;22.00;31.13;96568.47;110161;1247;68733;-75
2022/04/22 12:26:51;;;;;;;3.50;3.20;;;;;;;22.02;31.58;96564.33;110412;1244;69417;-71
2022/04/22 12:29:22;;;;;;;4.50;3.70;;;;;;;22.03;31.44;96563.10;110207;1247;59750;-72
2022/04/22 12:31:56;;;;;;;4.50;3.80;;;;;;;21.96;31.54;96555.73;110444;1244;59681;-73
2022/04/22 12:34:32;;;;;;;4.20;3.80;;;;;;;21.97;31.50;96560.61;110416;1243;71339;-74
2022/04/22 12:37:06;;;;;;;4.10;3.70;;;;;;;22.06;31.66;96557.13;110375;1244;67435;-72
2022/04/22 12:39:43;;;;;;;4.40;3.50;;;;;;;22.15;31.04;96554.16;110292;1244;69376;-73
2022/04/22 12:42:17;;;;;;;5.20;4.40;;;;;;;22.17;31.13;96556.18;110310;1244;59691;-73
2022/04/22 12:54:16;;;;;;;4.40;4.00;;;;;;;21.64;31.35;96536.70;110243;1244;69284;-75
2022/04/22 12:56:54;;;;;;;5.20;4.60;;;;;;;21.55;32.06;96526.02;110081;1247;60109;-75